This is the latest recevied weather packets stored in our database for station/object DL9GJ-6. If no packets are shown the sender has not sent any weather packets the latest 10 day(s).
| Time | Temp. | Humidity | Pressure | Rain* | Wind** | Luminosity | Snow |
|---|---|---|---|---|---|---|---|
| 1777918463 | 18.89° C | 57% | 1010 hPa | 0 mm | - | 6 W/m² | - |
| 1777918456 | 18.89° C | 57% | 1010 hPa | 0 mm | - | 6 W/m² | - |
| 1777918102 | 18.89° C | 57% | 1010 hPa | 0 mm | - | 7 W/m² | - |
| 1777917743 | 18.89° C | 56% | 1009.9 hPa | 0 mm | - | 9 W/m² | - |
| 1777917729 | 18.89° C | 56% | 1009.9 hPa | 0 mm | - | 9 W/m² | - |
| 1777917382 | 19.44° C | 56% | 1009.9 hPa | 0 mm | - | 10 W/m² | - |
| 1777917022 | 19.44° C | 56% | 1009.9 hPa | 0 mm | - | 12 W/m² | - |
| 1777916662 | 20° C | 54% | 1009.9 hPa | 0 mm | - | 23 W/m² | - |
| 1777916302 | 20° C | 54% | 1009.9 hPa | 0 mm | - | 35 W/m² | - |
| 1777916289 | 20° C | 54% | 1009.9 hPa | 0 mm | - | 35 W/m² | - |
| 1777915943 | 20.56° C | 54% | 1009.9 hPa | 0 mm | - | 46 W/m² | - |
| 1777915583 | 20.56° C | 53% | 1009.8 hPa | 0 mm | - | 45 W/m² | - |
| 1777915569 | 20.56° C | 53% | 1009.8 hPa | 0 mm | - | 45 W/m² | - |
| 1777915222 | 20.56° C | 52% | 1009.8 hPa | 0 mm | - | 44 W/m² | - |
| 1777914862 | 20.56° C | 55% | 1009.9 hPa | 0 mm | - | 76 W/m² | - |
| 1777914502 | 20.56° C | 56% | 1009.9 hPa | 0 mm | - | 83 W/m² | - |
| 1777914492 | 20.56° C | 56% | 1009.9 hPa | 0 mm | - | 83 W/m² | - |
| 1777914143 | 20.56° C | 55% | 1009.9 hPa | 0 mm | - | 73 W/m² | - |
| 1777914129 | 20.56° C | 55% | 1009.9 hPa | 0 mm | - | 73 W/m² | - |
| 1777913783 | 21.11° C | 52% | 1010 hPa | 0 mm | - | 67 W/m² | - |
| 1777913422 | 21.11° C | 50% | 1009.9 hPa | 0 mm | - | 70 W/m² | - |
| 1777913412 | 21.11° C | 50% | 1009.9 hPa | 0 mm | - | 70 W/m² | - |
| 1777913062 | 21.11° C | 50% | 1009.9 hPa | 0 mm | - | 98 W/m² | - |
| 1777912702 | 21.11° C | 50% | 1009.9 hPa | 0 mm | - | 99 W/m² | - |
| 1777912342 | 21.11° C | 49% | 1009.9 hPa | 0 mm | - | 103 W/m² | - |
* Rain latest hour (hover to see other rain measurements)
** Current wind speed in m/s (hover to see current wind gust speed)